createdAt,value
2023-03-28T00:00:31.005Z,99.90
2023-03-28T00:07:43.977Z,99.90
2023-03-28T00:10:11.603Z,99.90
2023-03-28T00:12:46.839Z,99.90
2023-03-28T00:15:15.166Z,99.90
2023-03-28T00:17:43.109Z,99.90
2023-03-28T00:20:12.872Z,99.90
2023-03-28T00:22:40.804Z,99.90
2023-03-28T00:27:47.699Z,99.90
2023-03-28T00:30:18.570Z,99.90
2023-03-28T00:32:45.920Z,99.90
2023-03-28T00:35:15.417Z,99.90
2023-03-28T00:37:48.134Z,99.90
2023-03-28T00:40:15.934Z,99.90
2023-03-28T00:42:43.886Z,99.90
2023-03-28T00:50:05.013Z,99.90
2023-03-28T00:52:42.047Z,99.90
2023-03-28T00:55:17.198Z,99.90
2023-03-28T00:57:46.682Z,99.90
2023-03-28T01:00:23.217Z,99.90
2023-03-28T01:02:54.645Z,99.90
2023-03-28T01:05:26.921Z,99.90
2023-03-28T01:13:00.657Z,99.90
2023-03-28T01:15:28.889Z,99.90
2023-03-28T01:18:11.173Z,99.90
2023-03-28T01:21:11.220Z,99.90
2023-03-28T01:24:11.659Z,99.90
2023-03-28T01:26:53.229Z,99.90
2023-03-28T01:37:15.809Z,99.90
2023-03-28T01:40:10.488Z,99.90
2023-03-28T01:42:50.567Z,99.90
2023-03-28T01:45:45.863Z,99.90
2023-03-28T01:48:23.012Z,99.90
2023-03-28T01:51:07.460Z,99.90
2023-03-28T01:53:44.082Z,99.90
2023-03-28T02:01:52.417Z,99.90
2023-03-28T02:04:24.398Z,99.90
2023-03-28T02:06:56.842Z,99.90
2023-03-28T02:09:29.249Z,99.90
2023-03-28T02:12:01.752Z,99.90
2023-03-28T02:14:35.742Z,99.90
2023-03-28T02:17:08.827Z,99.90
2023-03-28T02:24:44.517Z,99.90
2023-03-28T02:27:12.116Z,99.90
2023-03-28T02:29:41.993Z,99.90
2023-03-28T02:32:09.465Z,99.90
2023-03-28T02:34:36.940Z,99.90
2023-03-28T02:37:19.321Z,99.90
2023-03-28T02:39:53.199Z,99.90
2023-03-28T02:47:48.099Z,99.90
2023-03-28T02:50:25.070Z,99.90
2023-03-28T02:52:58.110Z,99.90
2023-03-28T02:55:33.517Z,99.90
2023-03-28T02:58:07.729Z,99.90
2023-03-28T03:00:39.180Z,99.90
2023-03-28T03:03:11.218Z,99.90
2023-03-28T03:13:08.293Z,99.90
2023-03-28T03:15:35.829Z,99.90
2023-03-28T03:18:06.333Z,99.90
2023-03-28T03:20:33.903Z,99.90
2023-03-28T03:23:04.283Z,99.90
2023-03-28T03:25:34.189Z,99.90
2023-03-28T03:28:03.428Z,99.90
2023-03-28T03:35:46.100Z,99.90
2023-03-28T03:38:15.824Z,99.90
2023-03-28T03:40:43.690Z,99.90
2023-03-28T03:43:12.895Z,99.90
2023-03-28T03:45:40.730Z,99.90
2023-03-28T03:48:08.264Z,99.90
2023-03-28T03:50:35.738Z,99.90
2023-03-28T03:58:07.584Z,99.90
2023-03-28T04:00:37.012Z,99.90
2023-03-28T04:03:04.706Z,99.90
2023-03-28T04:05:32.345Z,99.90
2023-03-28T04:08:01.345Z,99.90
2023-03-28T04:10:28.762Z,99.90
2023-03-28T04:12:56.388Z,99.90
2023-03-28T04:20:10.902Z,99.90
2023-03-28T04:22:46.174Z,99.90
2023-03-28T04:25:14.399Z,99.90
2023-03-28T04:27:46.402Z,99.90
2023-03-28T04:30:20.764Z,99.90
2023-03-28T04:32:53.637Z,99.90
2023-03-28T04:35:23.703Z,99.90
2023-03-28T04:42:18.949Z,99.90
2023-03-28T04:44:46.619Z,99.90
2023-03-28T04:47:17.892Z,99.90
2023-03-28T04:49:45.289Z,99.90
2023-03-28T04:52:15.567Z,99.90
2023-03-28T04:54:42.888Z,99.90
2023-03-28T04:57:10.231Z,99.90
2023-03-28T05:04:31.497Z,99.90
2023-03-28T05:06:58.839Z,99.90
2023-03-28T05:09:26.879Z,99.90
2023-03-28T05:11:54.324Z,99.90
2023-03-28T05:14:22.322Z,99.90
2023-03-28T05:16:51.671Z,99.90
2023-03-28T05:19:20.363Z,99.90
2023-03-28T05:26:13.273Z,99.90
2023-03-28T05:28:41.031Z,99.90
2023-03-28T05:31:08.744Z,99.90
2023-03-28T05:33:36.808Z,99.90
2023-03-28T05:36:04.830Z,99.90
2023-03-28T05:38:46.490Z,99.90
2023-03-28T05:46:36.927Z,99.90
2023-03-28T05:49:07.222Z,99.90
2023-03-28T05:51:34.660Z,99.90
2023-03-28T05:54:02.341Z,99.90
2023-03-28T05:56:32.018Z,99.90
2023-03-28T05:58:59.341Z,99.90
2023-03-28T06:01:28.443Z,99.90
2023-03-28T06:08:58.168Z,99.90
2023-03-28T06:11:27.541Z,99.90
2023-03-28T06:13:54.582Z,99.90
2023-03-28T06:16:31.159Z,99.90
2023-03-28T06:19:10.630Z,99.90
2023-03-28T06:21:42.646Z,99.90
2023-03-28T06:24:11.265Z,99.90
2023-03-28T06:31:43.549Z,99.90
2023-03-28T06:34:10.981Z,99.90
2023-03-28T06:36:38.429Z,99.90
2023-03-28T06:39:05.587Z,99.90
2023-03-28T06:41:33.301Z,99.90
2023-03-28T06:44:00.588Z,99.90
2023-03-28T06:46:28.137Z,99.90
2023-03-28T06:54:23.782Z,99.90
2023-03-28T06:56:51.359Z,99.90
2023-03-28T06:59:18.573Z,99.90
2023-03-28T07:01:46.649Z,99.90
2023-03-28T07:04:13.928Z,99.90
2023-03-28T07:06:47.380Z,99.90
2023-03-28T07:09:17.136Z,99.90
2023-03-28T07:11:46.740Z,99.90
2023-03-28T07:19:00.157Z,99.90
2023-03-28T07:21:45.543Z,99.90
2023-03-28T07:24:15.463Z,99.90
2023-03-28T07:26:46.103Z,99.90
2023-03-28T07:29:23.133Z,99.90
2023-03-28T07:32:23.229Z,99.90
2023-03-28T07:34:55.432Z,99.90
2023-03-28T07:37:46.777Z,99.90
2023-03-28T07:45:31.081Z,99.90
2023-03-28T07:47:59.437Z,99.90
2023-03-28T07:50:27.387Z,99.90
2023-03-28T07:52:57.447Z,99.90
2023-03-28T07:55:26.133Z,99.90
2023-03-28T07:57:54.569Z,99.90
2023-03-28T08:00:23.621Z,99.90
2023-03-28T08:02:52.667Z,99.90
2023-03-28T08:10:25.317Z,99.90
2023-03-28T08:12:55.700Z,99.90
2023-03-28T08:15:24.799Z,99.90
2023-03-28T08:17:52.303Z,99.90
2023-03-28T08:20:28.866Z,99.90
2023-03-28T08:22:56.440Z,99.90
2023-03-28T08:25:35.253Z,99.90
2023-03-28T08:28:03.091Z,99.90
2023-03-28T08:35:35.000Z,99.90
2023-03-28T08:38:21.082Z,99.90
2023-03-28T08:40:58.529Z,99.90
2023-03-28T08:44:17.797Z,99.90
2023-03-28T08:47:10.379Z,99.90
2023-03-28T08:49:45.090Z,99.90
2023-03-28T08:52:14.337Z,99.90
2023-03-28T08:57:42.818Z,99.90
2023-03-28T09:00:16.505Z,99.90
2023-03-28T09:02:44.505Z,99.90
2023-03-28T09:05:38.979Z,99.90
2023-03-28T09:08:35.926Z,99.90
2023-03-28T09:11:40.429Z,99.90
2023-03-28T09:15:10.969Z,99.90
2023-03-28T09:35:58.128Z,99.90
2023-03-28T09:39:20.220Z,99.90
2023-03-28T09:42:02.247Z,99.90
2023-03-28T09:45:13.648Z,99.90
2023-03-28T09:47:49.276Z,99.90
2023-03-28T09:50:18.698Z,99.90
2023-03-28T09:52:46.619Z,99.90
2023-03-28T09:55:32.526Z,99.90
2023-03-28T10:01:50.463Z,99.90
2023-03-28T10:04:23.745Z,99.90
2023-03-28T10:06:51.846Z,99.90
2023-03-28T10:13:55.805Z,99.90
2023-03-28T10:16:27.622Z,99.90
2023-03-28T10:18:55.142Z,99.90
2023-03-28T10:21:26.288Z,99.90
2023-03-28T10:24:01.094Z,99.90
2023-03-28T10:26:30.069Z,99.90
2023-03-28T10:29:05.195Z,99.90
2023-03-28T10:36:42.133Z,99.90
2023-03-28T10:39:25.149Z,99.90
2023-03-28T10:41:54.417Z,99.90
2023-03-28T10:44:30.214Z,99.90
2023-03-28T10:47:02.322Z,99.90
2023-03-28T10:49:37.134Z,99.90
2023-03-28T10:52:17.646Z,99.90
2023-03-28T11:00:05.483Z,99.90
2023-03-28T11:02:54.380Z,99.90
2023-03-28T11:05:39.279Z,99.90
2023-03-28T11:08:25.523Z,99.90
2023-03-28T11:11:03.024Z,99.90
2023-03-28T11:13:37.658Z,99.90
2023-03-28T11:16:16.430Z,99.90
2023-03-28T11:26:23.012Z,99.90
2023-03-28T11:29:10.778Z,99.90
2023-03-28T11:31:44.940Z,99.90
2023-03-28T11:34:18.997Z,99.90
2023-03-28T11:36:55.784Z,99.90
2023-03-28T11:39:32.257Z,99.90
2023-03-28T11:44:55.992Z,99.90
2023-03-28T11:47:29.104Z,99.90
2023-03-28T11:50:03.134Z,99.90
2023-03-28T11:52:36.826Z,99.90
2023-03-28T11:55:15.310Z,99.90
2023-03-28T11:57:52.026Z,99.90
2023-03-28T12:06:04.920Z,99.90
2023-03-28T12:08:40.225Z,99.90
2023-03-28T12:11:13.866Z,99.90
2023-03-28T12:13:53.015Z,99.90
2023-03-28T12:16:30.963Z,99.90
2023-03-28T12:19:01.166Z,99.90
2023-03-28T12:24:20.138Z,99.90
2023-03-28T12:27:04.915Z,99.90
2023-03-28T12:29:40.803Z,99.90
2023-03-28T12:32:31.326Z,99.90
2023-03-28T12:35:07.550Z,99.90
2023-03-28T12:37:42.193Z,99.90
2023-03-28T12:44:56.609Z,99.90
2023-03-28T12:47:31.103Z,99.90
2023-03-28T12:50:05.354Z,99.90
2023-03-28T12:52:38.030Z,99.90
2023-03-28T12:55:12.155Z,99.90
2023-03-28T12:57:51.337Z,99.90
2023-03-28T13:06:12.905Z,99.90
2023-03-28T13:08:54.196Z,99.90
2023-03-28T13:11:29.090Z,99.90
2023-03-28T13:14:06.022Z,99.90
2023-03-28T13:16:46.927Z,99.90
2023-03-28T13:19:18.520Z,99.90
2023-03-28T13:24:33.194Z,99.90
2023-03-28T13:27:03.604Z,99.90
2023-03-28T13:29:48.354Z,99.90
2023-03-28T13:32:18.168Z,99.90
2023-03-28T13:34:53.599Z,99.90
2023-03-28T13:37:23.365Z,99.90
2023-03-28T13:39:53.169Z,99.90
2023-03-28T13:45:24.799Z,99.90
2023-03-28T13:48:06.207Z,99.90
2023-03-28T13:50:42.784Z,99.90
2023-03-28T13:53:11.017Z,99.90
2023-03-28T13:55:39.666Z,99.90
2023-03-28T13:58:12.182Z,99.90
2023-03-28T14:00:41.113Z,99.90
2023-03-28T14:03:15.530Z,99.90
2023-03-28T14:13:31.049Z,97.50
2023-03-28T14:15:59.704Z,96.20
2023-03-28T14:18:32.572Z,96.40
2023-03-28T14:21:00.910Z,96.50
2023-03-28T14:23:33.123Z,96.60
2023-03-28T14:26:02.401Z,96.60
2023-03-28T14:28:35.577Z,98.50
2023-03-28T14:33:47.624Z,98.50
2023-03-28T14:36:18.228Z,99.20
2023-03-28T14:38:46.876Z,98.90
2023-03-28T14:41:18.629Z,99.10
2023-03-28T14:43:53.034Z,98.30
2023-03-28T14:46:26.749Z,99.40
2023-03-28T14:48:59.157Z,99.90
2023-03-28T14:51:28.431Z,99.80
2023-03-28T15:00:58.251Z,99.90
2023-03-28T15:03:33.503Z,99.90
2023-03-28T15:06:02.862Z,99.70
2023-03-28T15:08:34.145Z,99.90
2023-03-28T15:11:05.948Z,99.40
2023-03-28T15:13:37.616Z,99.90
2023-03-28T15:16:07.852Z,99.90
2023-03-28T15:21:16.221Z,99.90
2023-03-28T15:23:47.556Z,99.90
2023-03-28T15:26:22.124Z,99.90
2023-03-28T15:28:50.273Z,99.90
2023-03-28T15:31:20.321Z,99.90
2023-03-28T15:33:54.030Z,99.90
2023-03-28T15:36:26.129Z,99.90
2023-03-28T15:39:03.716Z,99.90
2023-03-28T15:46:43.206Z,99.90
2023-03-28T15:49:13.030Z,99.90
2023-03-28T15:51:51.602Z,99.90
2023-03-28T15:54:30.812Z,99.90
2023-03-28T15:57:02.700Z,99.90
2023-03-28T15:59:40.010Z,99.90
2023-03-28T16:05:06.212Z,99.90
2023-03-28T16:07:36.790Z,99.90
2023-03-28T16:10:06.256Z,99.90
2023-03-28T16:12:35.033Z,99.90
2023-03-28T16:15:04.797Z,99.90
2023-03-28T16:17:36.617Z,99.90
2023-03-28T16:20:22.977Z,99.90
2023-03-28T16:22:53.592Z,99.90
2023-03-28T16:30:36.227Z,99.90
2023-03-28T16:33:07.144Z,99.90
2023-03-28T16:35:38.918Z,99.90
2023-03-28T16:38:10.521Z,99.90
2023-03-28T16:40:40.861Z,99.90
2023-03-28T16:43:10.093Z,99.90
2023-03-28T16:45:43.868Z,99.90
2023-03-28T16:56:03.022Z,99.90
2023-03-28T16:58:33.660Z,99.90
2023-03-28T17:01:05.998Z,99.90
2023-03-28T17:03:33.873Z,99.90
2023-03-28T17:06:09.935Z,99.90
2023-03-28T17:08:38.144Z,99.90
2023-03-28T17:11:12.217Z,99.90
2023-03-28T17:21:36.712Z,99.90
2023-03-28T17:24:12.927Z,99.90
2023-03-28T17:26:45.073Z,99.90
2023-03-28T17:29:23.523Z,99.90
2023-03-28T17:31:55.833Z,99.90
2023-03-28T17:34:25.932Z,99.90
2023-03-28T17:44:50.155Z,99.90
2023-03-28T17:47:21.484Z,99.90
2023-03-28T17:49:50.557Z,99.90
2023-03-28T17:52:19.090Z,99.90
2023-03-28T17:54:51.617Z,99.90
2023-03-28T17:57:20.312Z,99.90
2023-03-28T17:59:49.664Z,99.90
2023-03-28T18:10:11.018Z,99.90
2023-03-28T18:12:49.511Z,99.90
2023-03-28T18:15:24.813Z,99.90
2023-03-28T18:18:02.469Z,99.90
2023-03-28T18:20:38.116Z,99.90
2023-03-28T18:23:07.818Z,99.90
2023-03-28T18:25:44.681Z,99.90
2023-03-28T18:28:22.089Z,99.90
2023-03-28T18:36:03.192Z,99.90
2023-03-28T18:38:43.828Z,99.90
2023-03-28T18:41:13.059Z,99.90
2023-03-28T18:43:47.241Z,99.90
2023-03-28T18:46:19.496Z,99.90
2023-03-28T18:48:48.075Z,99.90
2023-03-28T18:51:18.104Z,99.90
2023-03-28T18:56:26.928Z,99.90
2023-03-28T18:58:56.937Z,99.90
2023-03-28T19:01:35.897Z,99.90
2023-03-28T19:04:06.164Z,99.90
2023-03-28T19:06:39.233Z,99.90
2023-03-28T19:09:08.890Z,99.90
2023-03-28T19:11:38.286Z,99.90
2023-03-28T19:14:10.482Z,99.90
2023-03-28T19:19:30.354Z,99.90
2023-03-28T19:21:59.733Z,99.90
2023-03-28T19:24:28.123Z,99.90
2023-03-28T19:26:59.723Z,99.90
2023-03-28T19:29:33.622Z,99.90
2023-03-28T19:32:04.939Z,99.90
2023-03-28T19:34:37.180Z,99.90
2023-03-28T19:42:33.739Z,99.90
2023-03-28T19:45:07.991Z,99.90
2023-03-28T19:47:38.480Z,99.90
2023-03-28T19:50:13.902Z,99.90
2023-03-28T19:52:44.903Z,99.90
2023-03-28T19:55:14.837Z,99.90
2023-03-28T19:57:46.602Z,99.90
2023-03-28T20:05:23.533Z,99.90
2023-03-28T20:07:51.605Z,99.90
2023-03-28T20:10:20.132Z,99.90
2023-03-28T20:12:49.051Z,99.90
2023-03-28T20:15:19.955Z,99.90
2023-03-28T20:17:49.686Z,99.90
2023-03-28T20:20:19.903Z,99.90
2023-03-28T20:22:50.112Z,99.90
2023-03-28T20:30:28.482Z,99.90
2023-03-28T20:32:58.782Z,99.90
2023-03-28T20:35:29.669Z,99.90
2023-03-28T20:37:58.472Z,99.90
2023-03-28T20:40:28.120Z,99.90
2023-03-28T20:42:57.336Z,99.90
2023-03-28T20:45:30.247Z,99.90
2023-03-28T20:55:38.519Z,99.90
2023-03-28T20:58:08.891Z,99.90
2023-03-28T21:00:38.783Z,99.90
2023-03-28T21:03:08.842Z,99.90
2023-03-28T21:05:36.932Z,99.90
2023-03-28T21:08:08.560Z,99.90
2023-03-28T21:10:41.196Z,99.90
2023-03-28T21:17:39.843Z,99.90
2023-03-28T21:20:10.889Z,99.90
2023-03-28T21:22:38.602Z,99.90
2023-03-28T21:25:08.468Z,99.90
2023-03-28T21:27:36.482Z,99.90
2023-03-28T21:30:07.393Z,99.90
2023-03-28T21:32:35.203Z,99.90
2023-03-28T21:40:09.830Z,99.90
2023-03-28T21:42:37.392Z,99.90
2023-03-28T21:45:07.119Z,99.90
2023-03-28T21:47:37.651Z,99.90
2023-03-28T21:50:05.816Z,99.90
2023-03-28T21:52:33.169Z,99.90
2023-03-28T21:55:00.714Z,99.90
2023-03-28T22:05:30.191Z,99.90
2023-03-28T22:07:57.958Z,99.90
2023-03-28T22:10:29.153Z,99.90
2023-03-28T22:12:58.225Z,99.90
2023-03-28T22:15:26.568Z,99.90
2023-03-28T22:17:57.416Z,99.90
2023-03-28T22:20:26.359Z,99.90
2023-03-28T22:25:37.696Z,99.90
2023-03-28T22:28:07.411Z,99.90
2023-03-28T22:30:36.314Z,99.90
2023-03-28T22:33:04.234Z,99.90
2023-03-28T22:35:32.938Z,99.90
2023-03-28T22:38:00.716Z,99.90
2023-03-28T22:40:28.456Z,99.90
2023-03-28T22:46:02.130Z,99.90
2023-03-28T22:48:31.025Z,99.90
2023-03-28T22:51:01.566Z,99.90
2023-03-28T22:53:29.375Z,99.90
2023-03-28T22:55:57.127Z,99.90
2023-03-28T22:58:25.792Z,99.90
2023-03-28T23:00:54.405Z,99.90
2023-03-28T23:03:22.517Z,99.90
2023-03-28T23:10:58.294Z,99.90
2023-03-28T23:13:26.164Z,99.90
2023-03-28T23:15:54.904Z,99.90
2023-03-28T23:18:22.249Z,99.90
2023-03-28T23:20:51.104Z,99.90
2023-03-28T23:23:19.314Z,99.90
2023-03-28T23:25:47.553Z,99.90
2023-03-28T23:28:18.318Z,99.90
2023-03-28T23:36:45.581Z,99.90
2023-03-28T23:39:17.204Z,99.90
2023-03-28T23:42:06.906Z,99.90
2023-03-28T23:44:43.585Z,99.90
2023-03-28T23:47:12.124Z,99.90
2023-03-28T23:49:52.407Z,99.90
2023-03-28T23:55:38.204Z,99.90
